createdAt,value
2023-04-27T00:00:37.133Z,3.78
2023-04-27T00:02:38.815Z,3.53
2023-04-27T00:04:40.725Z,4.07
2023-04-27T00:06:43.265Z,2.85
2023-04-27T00:08:44.733Z,3.22
2023-04-27T00:10:46.345Z,3.33
2023-04-27T00:12:47.840Z,3.42
2023-04-27T00:14:49.653Z,3.65
2023-04-27T00:16:51.195Z,3.13
2023-04-27T00:18:52.736Z,3.03
2023-04-27T00:20:54.224Z,3.60
2023-04-27T00:22:55.816Z,3.58
2023-04-27T00:24:57.263Z,3.20
2023-04-27T00:26:58.747Z,3.60
2023-04-27T00:29:00.209Z,3.95
2023-04-27T00:31:03.616Z,3.70
2023-04-27T00:33:05.964Z,3.20
2023-04-27T00:35:08.033Z,3.70
2023-04-27T00:37:10.048Z,3.55
2023-04-27T00:39:12.401Z,3.55
2023-04-27T00:41:13.967Z,3.50
2023-04-27T00:43:15.442Z,3.30
2023-04-27T00:45:17.124Z,3.85
2023-04-27T00:47:18.939Z,3.90
2023-04-27T00:49:21.537Z,3.92
2023-04-27T00:51:27.708Z,4.03
2023-04-27T00:53:29.937Z,4.22
2023-04-27T00:55:31.529Z,4.25
2023-04-27T00:57:34.027Z,4.15
2023-04-27T00:59:35.687Z,3.85
2023-04-27T01:01:37.266Z,3.97
2023-04-27T01:03:38.839Z,3.97
2023-04-27T01:05:41.813Z,4.18
2023-04-27T01:07:43.774Z,3.78
2023-04-27T01:09:46.644Z,3.83
2023-04-27T01:11:48.130Z,3.95
2023-04-27T01:13:49.726Z,4.00
2023-04-27T01:15:51.317Z,4.28
2023-04-27T01:18:03.004Z,3.72
2023-04-27T01:20:09.763Z,3.90
2023-04-27T01:22:11.243Z,3.95
2023-04-27T01:24:12.726Z,3.70
2023-04-27T01:26:16.369Z,4.20
2023-04-27T01:28:17.877Z,4.25
2023-04-27T01:30:19.407Z,4.43
2023-04-27T01:32:21.174Z,4.28
2023-04-27T01:34:22.848Z,5.18
2023-04-27T01:36:24.333Z,4.20
2023-04-27T01:38:25.975Z,4.45
2023-04-27T01:40:27.536Z,4.25
2023-04-27T01:42:29.080Z,4.25
2023-04-27T01:44:30.691Z,4.30
2023-04-27T01:46:32.221Z,4.05
2023-04-27T01:48:34.552Z,4.82
2023-04-27T01:50:36.122Z,4.53
2023-04-27T01:52:37.879Z,4.50
2023-04-27T01:54:39.411Z,5.03
2023-04-27T01:56:41.880Z,4.55
2023-04-27T01:58:43.440Z,3.88
2023-04-27T02:00:44.894Z,4.07
2023-04-27T02:02:46.522Z,3.92
2023-04-27T02:04:48.257Z,4.57
2023-04-27T02:06:49.757Z,5.10
2023-04-27T02:08:51.678Z,5.05
2023-04-27T02:10:53.193Z,4.85
2023-04-27T02:12:54.759Z,4.35
2023-04-27T02:14:56.338Z,4.40
2023-04-27T02:16:57.797Z,4.15
2023-04-27T02:18:59.472Z,4.43
2023-04-27T02:21:01.160Z,4.55
2023-04-27T02:23:02.684Z,4.65
2023-04-27T02:25:04.474Z,4.35
2023-04-27T02:27:06.138Z,4.47
2023-04-27T02:29:07.980Z,4.50
2023-04-27T02:31:10.184Z,4.25
2023-04-27T02:33:11.885Z,4.43
2023-04-27T02:35:13.555Z,5.10
2023-04-27T02:37:15.573Z,4.70
2023-04-27T02:39:17.097Z,4.53
2023-04-27T02:41:18.576Z,4.32
2023-04-27T02:43:20.024Z,5.28
2023-04-27T02:45:21.624Z,4.53
2023-04-27T02:47:23.066Z,4.53
2023-04-27T02:49:24.523Z,4.68
2023-04-27T02:51:26.158Z,5.13
2023-04-27T02:53:27.612Z,4.30
2023-04-27T02:55:29.840Z,5.03
2023-04-27T02:57:31.781Z,4.82
2023-04-27T02:59:33.251Z,5.15
2023-04-27T03:01:34.732Z,4.53
2023-04-27T03:03:36.317Z,4.50
2023-04-27T03:05:38.176Z,4.30
2023-04-27T03:07:39.760Z,4.53
2023-04-27T03:09:41.419Z,4.38
2023-04-27T03:11:42.861Z,4.47
2023-04-27T03:13:44.357Z,4.30
2023-04-27T03:15:45.809Z,4.43
2023-04-27T03:17:47.298Z,4.22
2023-04-27T03:19:49.294Z,4.38
2023-04-27T03:21:51.023Z,4.53
2023-04-27T03:23:53.152Z,4.55
2023-04-27T03:25:54.591Z,4.65
2023-04-27T03:27:56.430Z,4.57
2023-04-27T03:29:57.894Z,4.45
2023-04-27T03:31:59.395Z,4.90
2023-04-27T03:34:00.973Z,4.80
2023-04-27T03:36:04.377Z,5.15
2023-04-27T03:38:05.902Z,4.70
2023-04-27T03:40:08.253Z,5.22
2023-04-27T03:42:09.693Z,5.65
2023-04-27T03:44:11.157Z,5.47
2023-04-27T03:46:12.667Z,5.80
2023-04-27T03:48:15.334Z,4.95
2023-04-27T03:50:16.875Z,5.22
2023-04-27T03:52:18.337Z,5.07
2023-04-27T03:54:19.987Z,5.35
2023-04-27T03:56:21.530Z,5.50
2023-04-27T03:58:23.013Z,5.55
2023-04-27T04:00:24.761Z,5.35
2023-04-27T04:02:26.354Z,5.22
2023-04-27T04:04:28.144Z,5.97
2023-04-27T04:06:29.722Z,5.68
2023-04-27T04:08:32.969Z,5.70
2023-04-27T04:10:34.520Z,5.55
2023-04-27T04:12:36.642Z,5.10
2023-04-27T04:14:38.137Z,4.95
2023-04-27T04:16:39.631Z,5.72
2023-04-27T04:18:41.185Z,5.10
2023-04-27T04:20:42.694Z,5.47
2023-04-27T04:22:44.353Z,4.85
2023-04-27T04:24:45.852Z,5.22
2023-04-27T04:26:48.602Z,5.55
2023-04-27T04:28:50.079Z,6.15
2023-04-27T04:30:51.740Z,6.10
2023-04-27T04:32:53.245Z,5.40
2023-04-27T04:34:54.757Z,6.10
2023-04-27T04:36:57.664Z,5.88
2023-04-27T04:38:59.234Z,5.85
2023-04-27T04:41:01.182Z,6.07
2023-04-27T04:43:02.949Z,6.00
2023-04-27T04:45:05.075Z,6.13
2023-04-27T04:47:06.561Z,5.50
2023-04-27T04:49:08.252Z,6.00
2023-04-27T04:51:09.716Z,5.80
2023-04-27T04:53:11.158Z,6.20
2023-04-27T04:55:12.756Z,5.93
2023-04-27T04:57:14.257Z,5.35
2023-04-27T04:59:16.475Z,5.75
2023-04-27T05:01:18.335Z,6.60
2023-04-27T05:03:19.872Z,6.78
2023-04-27T05:05:21.406Z,7.50
2023-04-27T05:07:24.914Z,6.07
2023-04-27T05:09:26.649Z,5.57
2023-04-27T05:11:28.188Z,6.03
2023-04-27T05:13:29.757Z,6.25
2023-04-27T05:15:31.321Z,5.40
2023-04-27T05:17:32.921Z,5.97
2023-04-27T05:19:34.425Z,5.75
2023-04-27T05:21:35.877Z,5.70
2023-04-27T05:23:37.566Z,6.07
2023-04-27T05:25:41.845Z,6.53
2023-04-27T05:27:43.435Z,6.32
2023-04-27T05:29:44.899Z,6.57
2023-04-27T05:31:46.437Z,5.80
2023-04-27T05:33:47.952Z,6.35
2023-04-27T05:35:49.410Z,6.20
2023-04-27T05:37:51.109Z,6.05
2023-04-27T05:39:52.565Z,5.90
2023-04-27T05:41:54.074Z,5.90
2023-04-27T05:43:55.839Z,6.20
2023-04-27T05:45:57.321Z,6.13
2023-04-27T05:47:58.988Z,5.63
2023-04-27T05:50:00.592Z,6.00
2023-04-27T05:52:02.096Z,5.28
2023-04-27T05:54:03.726Z,5.85
2023-04-27T05:56:06.954Z,5.53
2023-04-27T05:58:09.415Z,5.63
2023-04-27T06:00:12.633Z,5.50
2023-04-27T06:02:14.258Z,6.28
2023-04-27T06:04:16.188Z,5.95
2023-04-27T06:06:17.874Z,5.35
2023-04-27T06:08:19.379Z,5.63
2023-04-27T06:10:20.982Z,5.18
2023-04-27T06:12:22.480Z,5.25
2023-04-27T06:14:24.218Z,5.63
2023-04-27T06:16:25.818Z,5.65
2023-04-27T06:18:27.418Z,5.35
2023-04-27T06:20:29.008Z,5.32
2023-04-27T06:22:30.853Z,6.05
2023-04-27T06:24:32.506Z,5.57
2023-04-27T06:26:34.073Z,4.95
2023-04-27T06:28:35.592Z,5.07
2023-04-27T06:30:38.905Z,5.45
2023-04-27T06:32:41.321Z,5.53
2023-04-27T06:34:42.775Z,5.07
2023-04-27T06:36:44.266Z,4.72
2023-04-27T06:38:45.772Z,4.50
2023-04-27T06:40:51.119Z,5.05
2023-04-27T06:42:53.003Z,4.13
2023-04-27T06:44:55.972Z,4.28
2023-04-27T06:46:57.417Z,4.80
2023-04-27T06:48:58.927Z,4.65
2023-04-27T06:51:00.679Z,4.43
2023-04-27T06:53:02.133Z,4.65
2023-04-27T06:55:03.833Z,4.53
2023-04-27T06:57:06.638Z,4.68
2023-04-27T06:59:08.855Z,4.63
2023-04-27T07:01:10.407Z,4.13
2023-04-27T07:03:12.359Z,3.88
2023-04-27T07:05:14.217Z,3.90
2023-04-27T07:07:15.727Z,4.40
2023-04-27T07:09:27.050Z,4.13
2023-04-27T07:11:29.178Z,2.75
2023-04-27T07:13:30.714Z,3.28
2023-04-27T07:15:32.278Z,2.80
2023-04-27T07:17:34.059Z,2.83
2023-04-27T07:19:36.830Z,3.05
2023-04-27T07:21:38.329Z,3.00
2023-04-27T07:23:41.598Z,2.65
2023-04-27T07:25:43.527Z,3.10
2023-04-27T07:27:45.352Z,2.97
2023-04-27T07:29:47.233Z,2.92
2023-04-27T07:31:49.995Z,2.80
2023-04-27T07:33:53.423Z,1.40
2023-04-27T07:35:55.119Z,1.63
2023-04-27T07:37:56.756Z,2.08
2023-04-27T07:39:59.916Z,2.45
2023-04-27T07:42:03.414Z,2.20
2023-04-27T07:44:04.946Z,1.98
2023-04-27T07:46:06.457Z,2.20
2023-04-27T07:48:08.260Z,2.40
2023-04-27T07:50:11.021Z,2.40
2023-04-27T07:52:12.809Z,2.45
2023-04-27T07:54:14.658Z,1.65
2023-04-27T07:56:16.339Z,2.17
2023-04-27T07:58:19.079Z,2.60
2023-04-27T08:00:21.093Z,1.88
2023-04-27T08:02:22.871Z,2.00
2023-04-27T08:04:24.669Z,2.20
2023-04-27T08:06:28.892Z,1.52
2023-04-27T08:08:31.087Z,2.08
2023-04-27T08:10:32.531Z,1.98
2023-04-27T08:12:34.551Z,2.10
2023-04-27T08:14:36.502Z,1.83
2023-04-27T08:16:38.005Z,1.95
2023-04-27T08:18:39.527Z,2.05
2023-04-27T08:20:41.068Z,1.83
2023-04-27T08:22:42.913Z,1.90
2023-04-27T08:24:44.403Z,2.20
2023-04-27T08:26:45.854Z,2.00
2023-04-27T08:28:47.560Z,2.22
2023-04-27T08:30:49.204Z,1.67
2023-04-27T08:32:50.724Z,1.73
2023-04-27T08:34:52.249Z,1.85
2023-04-27T08:36:56.957Z,1.65
2023-04-27T08:38:58.449Z,1.77
2023-04-27T08:41:07.443Z,1.75
2023-04-27T08:43:19.722Z,1.60
2023-04-27T08:45:23.667Z,2.28
2023-04-27T08:47:35.077Z,1.80
2023-04-27T08:49:43.820Z,3.60
2023-04-27T08:51:45.410Z,2.08
2023-04-27T08:53:50.516Z,1.92
2023-04-27T08:55:52.456Z,2.28
2023-04-27T08:57:58.416Z,1.73
2023-04-27T09:00:00.966Z,1.50
2023-04-27T09:02:04.195Z,1.80
2023-04-27T09:06:09.193Z,1.90
2023-04-27T09:08:10.901Z,1.58
2023-04-27T09:10:12.926Z,1.75
2023-04-27T09:12:19.021Z,1.42
2023-04-27T09:14:22.900Z,1.70
2023-04-27T09:16:26.292Z,1.95
2023-04-27T09:18:28.033Z,1.80
2023-04-27T09:20:30.210Z,2.00
2023-04-27T09:22:31.780Z,1.70
2023-04-27T09:24:33.870Z,1.90
2023-04-27T09:26:35.363Z,1.85
2023-04-27T09:28:40.430Z,1.88
2023-04-27T09:30:41.898Z,2.10
2023-04-27T09:32:58.866Z,1.77
2023-04-27T09:35:00.380Z,2.00
2023-04-27T09:37:02.054Z,2.80
2023-04-27T09:39:06.852Z,1.80
2023-04-27T09:41:09.066Z,2.10
2023-04-27T09:43:10.800Z,2.47
2023-04-27T09:45:13.322Z,2.38
2023-04-27T09:47:15.150Z,1.52
2023-04-27T09:49:18.923Z,2.08
2023-04-27T09:51:20.551Z,2.00
2023-04-27T09:53:30.545Z,2.28
2023-04-27T09:55:37.771Z,2.05
2023-04-27T09:57:51.595Z,2.28
2023-04-27T10:00:17.993Z,1.50
2023-04-27T10:02:24.863Z,2.00
2023-04-27T10:05:02.835Z,1.95
2023-04-27T10:07:14.998Z,1.90
2023-04-27T10:09:23.429Z,2.22
2023-04-27T10:11:41.642Z,1.80
2023-04-27T10:13:54.371Z,1.75
2023-04-27T10:15:56.466Z,1.88
2023-04-27T10:18:05.313Z,2.60
2023-04-27T10:20:09.037Z,1.70
2023-04-27T10:22:10.659Z,1.88
2023-04-27T10:24:12.200Z,1.88
2023-04-27T10:26:14.441Z,1.90
2023-04-27T10:28:21.314Z,1.88
2023-04-27T10:30:26.072Z,1.88
2023-04-27T10:32:29.277Z,1.88
2023-04-27T10:34:34.942Z,1.70
2023-04-27T10:36:40.971Z,1.90
2023-04-27T10:38:42.623Z,2.08
2023-04-27T10:40:57.772Z,1.77
2023-04-27T10:43:08.515Z,1.88
2023-04-27T10:45:12.860Z,2.13
2023-04-27T10:47:22.117Z,1.88
2023-04-27T10:49:24.089Z,1.95
2023-04-27T10:51:26.928Z,2.00
2023-04-27T10:53:35.522Z,2.00
2023-04-27T10:55:37.437Z,1.70
2023-04-27T10:57:46.869Z,2.15
2023-04-27T10:59:51.210Z,2.20
2023-04-27T11:01:52.702Z,1.83
2023-04-27T11:03:58.977Z,1.83
2023-04-27T11:06:04.198Z,1.92
2023-04-27T11:08:14.245Z,1.83
2023-04-27T11:10:20.121Z,2.00
2023-04-27T11:12:21.808Z,1.40
2023-04-27T11:14:23.329Z,1.60
2023-04-27T11:16:24.789Z,1.83
2023-04-27T11:18:29.658Z,1.83
2023-04-27T11:20:31.283Z,1.77
2023-04-27T11:22:32.796Z,1.60
2023-04-27T11:24:34.298Z,2.10
2023-04-27T11:26:35.907Z,1.75
2023-04-27T11:28:38.123Z,1.67
2023-04-27T11:30:39.659Z,1.70
2023-04-27T11:32:41.171Z,1.67
2023-04-27T11:34:53.736Z,1.65
2023-04-27T11:37:16.821Z,1.70
2023-04-27T11:39:19.630Z,1.40
2023-04-27T11:41:21.152Z,1.88
2023-04-27T11:43:26.106Z,1.73
2023-04-27T11:45:28.095Z,1.65
2023-04-27T11:47:31.421Z,1.50
2023-04-27T11:49:32.938Z,1.40
2023-04-27T11:51:35.241Z,1.80
2023-04-27T11:53:39.339Z,1.70
2023-04-27T11:55:41.540Z,1.90
2023-04-27T11:57:43.244Z,2.17
2023-04-27T11:59:44.781Z,1.80
2023-04-27T12:01:46.752Z,2.20
2023-04-27T12:03:48.392Z,1.83
2023-04-27T12:05:51.389Z,2.05
2023-04-27T12:07:52.998Z,1.90
2023-04-27T12:09:54.513Z,2.17
2023-04-27T12:11:56.264Z,2.00
2023-04-27T12:13:58.635Z,2.03
2023-04-27T12:16:01.021Z,2.30
2023-04-27T12:18:02.800Z,2.17
2023-04-27T12:20:05.253Z,2.20
2023-04-27T12:22:07.119Z,2.13
2023-04-27T12:24:08.619Z,2.20
2023-04-27T12:26:11.954Z,2.30
2023-04-27T12:28:18.953Z,1.92
2023-04-27T12:30:22.633Z,2.00
2023-04-27T12:32:24.088Z,1.80
2023-04-27T12:34:26.021Z,2.00
2023-04-27T12:36:27.557Z,1.70
2023-04-27T12:38:29.254Z,1.92
2023-04-27T12:40:30.739Z,2.20
2023-04-27T12:42:32.582Z,2.22
2023-04-27T12:44:34.104Z,2.50
2023-04-27T12:46:35.727Z,2.30
2023-04-27T12:48:37.278Z,2.03
2023-04-27T12:50:38.808Z,2.15
2023-04-27T12:52:40.253Z,2.20
2023-04-27T12:54:41.742Z,2.03
2023-04-27T12:56:43.330Z,2.10
2023-04-27T12:58:45.561Z,2.15
2023-04-27T13:00:47.046Z,2.40
2023-04-27T13:02:48.660Z,2.00
2023-04-27T13:04:50.364Z,2.10
2023-04-27T13:06:52.036Z,2.42
2023-04-27T13:08:53.469Z,2.38
2023-04-27T13:10:54.936Z,2.33
2023-04-27T13:12:56.449Z,2.33
2023-04-27T13:14:57.893Z,2.40
2023-04-27T13:16:59.406Z,2.40
2023-04-27T13:19:00.893Z,1.80
2023-04-27T13:21:03.514Z,2.17
2023-04-27T13:23:05.155Z,2.17
2023-04-27T13:25:07.071Z,2.00
2023-04-27T13:27:08.597Z,2.22
2023-04-27T13:29:10.059Z,2.20
2023-04-27T13:31:11.876Z,2.25
2023-04-27T13:33:22.649Z,2.40
2023-04-27T13:35:24.991Z,2.50
2023-04-27T13:37:27.131Z,2.25
2023-04-27T13:39:28.862Z,2.20
2023-04-27T13:41:31.290Z,2.88
2023-04-27T13:43:33.053Z,2.45
2023-04-27T13:45:34.771Z,2.47
2023-04-27T13:47:38.877Z,2.80
2023-04-27T13:49:40.418Z,2.55
2023-04-27T13:51:41.894Z,2.80
2023-04-27T13:53:43.348Z,2.53
2023-04-27T13:55:44.898Z,2.60
2023-04-27T13:57:46.390Z,2.63
2023-04-27T13:59:47.818Z,2.53
2023-04-27T14:01:49.311Z,2.67
2023-04-27T14:03:50.835Z,2.50
2023-04-27T14:05:52.481Z,2.80
2023-04-27T14:07:53.937Z,2.50
2023-04-27T14:09:55.375Z,2.60
2023-04-27T14:11:57.737Z,2.65
2023-04-27T14:13:59.296Z,3.13
2023-04-27T14:16:00.747Z,2.95
2023-04-27T14:18:06.365Z,3.05
2023-04-27T14:20:08.529Z,2.80
2023-04-27T14:22:10.171Z,2.70
2023-04-27T14:24:11.604Z,3.22
2023-04-27T14:26:13.136Z,2.80
2023-04-27T14:28:14.900Z,3.00
2023-04-27T14:30:16.652Z,3.53
2023-04-27T14:32:18.226Z,2.78
2023-04-27T14:34:21.509Z,2.50
2023-04-27T14:36:23.175Z,2.92
2023-04-27T14:38:24.793Z,3.10
2023-04-27T14:40:26.281Z,2.78
2023-04-27T14:42:27.892Z,3.00
2023-04-27T14:44:29.540Z,2.78
2023-04-27T14:46:31.062Z,2.60
2023-04-27T14:48:32.977Z,2.40
2023-04-27T14:50:34.626Z,2.85
2023-04-27T14:52:36.355Z,3.13
2023-04-27T14:54:38.764Z,3.30
2023-04-27T14:56:40.279Z,2.72
2023-04-27T14:58:41.875Z,2.90
2023-04-27T15:00:43.525Z,2.83
2023-04-27T15:02:45.956Z,2.92
2023-04-27T15:04:47.480Z,2.58
2023-04-27T15:06:48.969Z,3.80
2023-04-27T15:08:50.404Z,3.08
2023-04-27T15:10:53.940Z,3.10
2023-04-27T15:12:55.487Z,3.05
2023-04-27T15:14:56.946Z,2.97
2023-04-27T15:16:58.393Z,3.33
2023-04-27T15:18:59.820Z,2.72
2023-04-27T15:21:01.323Z,2.90
2023-04-27T15:23:02.903Z,2.72
2023-04-27T15:25:04.759Z,2.88
2023-04-27T15:27:08.394Z,3.10
2023-04-27T15:29:11.224Z,2.90
2023-04-27T15:31:12.796Z,2.40
2023-04-27T15:33:15.453Z,2.33
2023-04-27T15:35:17.022Z,3.13
2023-04-27T15:37:18.589Z,2.60
2023-04-27T15:39:20.098Z,2.80
2023-04-27T15:41:22.055Z,3.30
2023-04-27T15:43:23.840Z,3.15
2023-04-27T15:45:25.805Z,3.13
2023-04-27T15:47:27.471Z,2.80
2023-04-27T15:49:29.921Z,3.15
2023-04-27T15:51:31.435Z,2.80
2023-04-27T15:53:32.983Z,3.03
2023-04-27T15:55:34.441Z,2.90
2023-04-27T15:57:35.909Z,3.13
2023-04-27T15:59:37.565Z,3.53
2023-04-27T16:01:39.180Z,2.90
2023-04-27T16:03:40.757Z,3.15
2023-04-27T16:05:42.372Z,3.33
2023-04-27T16:07:44.923Z,2.65
2023-04-27T16:09:46.433Z,3.38
2023-04-27T16:11:47.930Z,2.90
2023-04-27T16:13:49.388Z,3.10
2023-04-27T16:15:50.955Z,3.13
2023-04-27T16:17:52.438Z,3.50
2023-04-27T16:19:53.898Z,3.08
2023-04-27T16:21:55.406Z,3.50
2023-04-27T16:23:56.920Z,3.35
2023-04-27T16:25:58.390Z,2.83
2023-04-27T16:27:59.901Z,2.60
2023-04-27T16:30:01.391Z,3.35
2023-04-27T16:32:03.029Z,3.13
2023-04-27T16:34:05.193Z,3.28
2023-04-27T16:36:06.838Z,3.40
2023-04-27T16:38:08.333Z,4.22
2023-04-27T16:40:10.184Z,3.47
2023-04-27T16:42:13.403Z,3.63
2023-04-27T16:44:15.382Z,3.88
2023-04-27T16:46:17.473Z,3.53
2023-04-27T16:48:19.099Z,3.45
2023-04-27T16:50:20.876Z,3.63
2023-04-27T16:52:22.337Z,3.63
2023-04-27T16:54:23.785Z,3.70
2023-04-27T16:56:29.881Z,3.67
2023-04-27T16:58:32.894Z,3.78
2023-04-27T17:00:34.440Z,3.95
2023-04-27T17:02:36.172Z,3.70
2023-04-27T17:04:40.162Z,3.33
2023-04-27T17:06:42.035Z,3.30
2023-04-27T17:08:43.475Z,3.50
2023-04-27T17:10:45.487Z,3.55
2023-04-27T17:12:47.065Z,4.05
2023-04-27T17:14:48.553Z,4.57
2023-04-27T17:16:50.000Z,3.70
2023-04-27T17:18:51.487Z,4.30
2023-04-27T17:20:53.238Z,4.90
2023-04-27T17:22:54.715Z,3.80
2023-04-27T17:24:56.434Z,3.72
2023-04-27T17:26:57.955Z,4.13
2023-04-27T17:29:01.285Z,3.70
2023-04-27T17:31:02.884Z,3.97
2023-04-27T17:33:04.585Z,3.92
2023-04-27T17:35:06.422Z,4.03
2023-04-27T17:37:08.488Z,4.22
2023-04-27T17:39:10.314Z,3.95
2023-04-27T17:41:11.820Z,3.80
2023-04-27T17:43:13.289Z,3.63
2023-04-27T17:45:15.388Z,3.60
2023-04-27T17:47:18.957Z,3.72
2023-04-27T17:49:20.477Z,3.97
2023-04-27T17:51:22.021Z,3.83
2023-04-27T17:53:23.461Z,4.30
2023-04-27T17:55:24.916Z,3.80
2023-04-27T17:57:26.388Z,4.35
2023-04-27T17:59:28.879Z,4.32
2023-04-27T18:01:30.729Z,3.88
2023-04-27T18:03:32.474Z,4.20
2023-04-27T18:05:34.060Z,4.15
2023-04-27T18:07:38.606Z,4.38
2023-04-27T18:09:40.052Z,4.55
2023-04-27T18:11:41.501Z,5.10
2023-04-27T18:13:43.050Z,4.82
2023-04-27T18:15:44.604Z,4.57
2023-04-27T18:17:46.164Z,5.13
2023-04-27T18:19:57.985Z,4.32
2023-04-27T18:22:06.023Z,4.65
2023-04-27T18:24:08.479Z,4.70
2023-04-27T18:26:11.614Z,4.18
2023-04-27T18:28:13.196Z,4.10
2023-04-27T18:30:14.758Z,4.53
2023-04-27T18:32:16.312Z,3.45
2023-04-27T18:34:17.825Z,4.25
2023-04-27T18:36:19.756Z,4.40
2023-04-27T18:38:21.240Z,3.55
2023-04-27T18:40:23.276Z,3.83
2023-04-27T18:42:24.844Z,3.40
2023-04-27T18:44:26.742Z,4.15
2023-04-27T18:46:28.222Z,4.28
2023-04-27T18:48:29.724Z,3.67
2023-04-27T18:50:31.638Z,3.90
2023-04-27T18:52:33.162Z,3.80
2023-04-27T18:54:34.635Z,3.40
2023-04-27T18:56:36.244Z,4.03
2023-04-27T18:58:37.733Z,3.92
2023-04-27T19:00:39.301Z,4.68
2023-04-27T19:02:40.896Z,3.97
2023-04-27T19:04:45.576Z,3.95
2023-04-27T19:06:54.463Z,4.20
2023-04-27T19:08:56.498Z,4.05
2023-04-27T19:10:58.588Z,4.30
2023-04-27T19:13:00.640Z,3.80
2023-04-27T19:15:02.215Z,3.78
2023-04-27T19:17:03.977Z,4.60
2023-04-27T19:19:05.643Z,3.45
2023-04-27T19:21:09.970Z,4.05
2023-04-27T19:23:12.612Z,3.78
2023-04-27T19:25:14.231Z,4.10
2023-04-27T19:27:16.279Z,5.03
2023-04-27T19:29:18.027Z,4.53
2023-04-27T19:31:19.612Z,4.70
2023-04-27T19:33:21.757Z,4.65
2023-04-27T19:35:23.705Z,4.60
2023-04-27T19:37:27.845Z,4.72
2023-04-27T19:39:29.419Z,3.85
2023-04-27T19:41:30.919Z,4.35
2023-04-27T19:43:33.482Z,4.10
2023-04-27T19:45:35.001Z,4.25
2023-04-27T19:47:36.773Z,3.67
2023-04-27T19:49:38.870Z,4.40
2023-04-27T19:51:42.379Z,3.90
2023-04-27T19:53:43.901Z,4.47
2023-04-27T19:55:45.583Z,3.63
2023-04-27T19:57:47.040Z,4.30
2023-04-27T19:59:48.722Z,4.32
2023-04-27T20:01:50.226Z,4.43
2023-04-27T20:03:53.441Z,3.75
2023-04-27T20:05:55.820Z,4.20
2023-04-27T20:07:57.579Z,3.95
2023-04-27T20:09:59.056Z,3.53
2023-04-27T20:12:00.535Z,3.63
2023-04-27T20:14:02.059Z,3.92
2023-04-27T20:16:05.071Z,4.38
2023-04-27T20:18:06.666Z,3.17
2023-04-27T20:20:10.645Z,3.60
2023-04-27T20:22:12.730Z,3.50
2023-04-27T20:24:14.461Z,3.40
2023-04-27T20:26:16.170Z,3.85
2023-04-27T20:28:18.012Z,4.05
2023-04-27T20:30:19.595Z,4.20
2023-04-27T20:32:21.346Z,4.00
2023-04-27T20:34:22.935Z,4.70
2023-04-27T20:36:24.470Z,4.30
2023-04-27T20:38:25.981Z,4.50
2023-04-27T20:40:27.602Z,4.70
2023-04-27T20:42:29.659Z,4.43
2023-04-27T20:44:32.268Z,4.03
2023-04-27T20:46:33.779Z,4.13
2023-04-27T20:48:35.517Z,4.28
2023-04-27T20:50:37.307Z,3.90
2023-04-27T20:52:38.842Z,4.03
2023-04-27T20:54:40.332Z,4.43
2023-04-27T20:56:41.852Z,4.68
2023-04-27T20:58:43.308Z,4.35
2023-04-27T21:00:44.885Z,4.43
2023-04-27T21:02:48.154Z,4.35
2023-04-27T21:04:49.713Z,4.40
2023-04-27T21:06:51.162Z,4.60
2023-04-27T21:08:52.718Z,4.32
2023-04-27T21:10:54.210Z,4.38
2023-04-27T21:12:55.886Z,4.47
2023-04-27T21:14:57.341Z,4.72
2023-04-27T21:16:58.844Z,4.82
2023-04-27T21:19:00.477Z,4.75
2023-04-27T21:21:01.989Z,4.70
2023-04-27T21:23:03.512Z,4.50
2023-04-27T21:25:05.333Z,5.95
2023-04-27T21:27:06.769Z,4.75
2023-04-27T21:29:08.381Z,5.50
2023-04-27T21:31:09.969Z,4.95
2023-04-27T21:33:11.518Z,5.03
2023-04-27T21:35:13.057Z,4.60
2023-04-27T21:37:14.520Z,5.20
2023-04-27T21:39:16.032Z,5.40
2023-04-27T21:41:17.588Z,5.43
2023-04-27T21:43:19.059Z,5.63
2023-04-27T21:45:21.258Z,5.72
2023-04-27T21:47:22.947Z,5.15
2023-04-27T21:49:24.446Z,5.57
2023-04-27T21:51:26.407Z,5.72
2023-04-27T21:53:29.760Z,5.70
2023-04-27T21:55:31.263Z,6.30
2023-04-27T21:57:32.758Z,6.32
2023-04-27T21:59:34.205Z,6.13
2023-04-27T22:01:35.700Z,6.50
2023-04-27T22:03:38.165Z,6.53
2023-04-27T22:05:39.925Z,6.63
2023-04-27T22:07:41.479Z,6.40
2023-04-27T22:09:43.221Z,7.00
2023-04-27T22:11:44.691Z,6.70
2023-04-27T22:13:46.544Z,6.20
2023-04-27T22:15:48.664Z,6.97
2023-04-27T22:17:51.278Z,6.50
2023-04-27T22:19:52.960Z,6.40
2023-04-27T22:21:54.824Z,6.57
2023-04-27T22:23:56.584Z,7.03
2023-04-27T22:25:58.062Z,7.03
2023-04-27T22:27:59.530Z,6.75
2023-04-27T22:30:00.987Z,6.75
2023-04-27T22:32:02.561Z,7.10
2023-04-27T22:34:04.726Z,7.45
2023-04-27T22:36:06.564Z,6.95
2023-04-27T22:38:08.881Z,6.65
2023-04-27T22:40:11.663Z,7.72
2023-04-27T22:42:13.172Z,7.65
2023-04-27T22:44:14.803Z,7.70
2023-04-27T22:46:16.579Z,7.07
2023-04-27T22:48:18.558Z,7.32
2023-04-27T22:50:20.232Z,7.32
2023-04-27T22:52:24.485Z,7.55
2023-04-27T22:54:26.439Z,7.82
2023-04-27T22:56:27.934Z,7.93
2023-04-27T22:58:29.562Z,7.10
2023-04-27T23:00:31.464Z,7.53
2023-04-27T23:02:33.115Z,7.50
2023-04-27T23:04:34.733Z,7.95
2023-04-27T23:06:36.291Z,7.55
2023-04-27T23:08:37.748Z,7.78
2023-04-27T23:10:39.981Z,8.15
2023-04-27T23:12:41.585Z,7.85
2023-04-27T23:14:43.213Z,8.02
2023-04-27T23:16:46.379Z,7.63
2023-04-27T23:18:47.844Z,7.78
2023-04-27T23:20:55.672Z,7.70
2023-04-27T23:22:57.450Z,8.40
2023-04-27T23:24:58.932Z,7.88
2023-04-27T23:27:01.179Z,8.48
2023-04-27T23:29:03.053Z,9.05
2023-04-27T23:31:04.577Z,8.38
2023-04-27T23:33:06.166Z,8.40
2023-04-27T23:35:08.271Z,8.90
2023-04-27T23:37:09.757Z,8.15
2023-04-27T23:39:11.210Z,8.95
2023-04-27T23:41:12.689Z,8.45
2023-04-27T23:43:14.152Z,8.65
2023-04-27T23:45:15.877Z,8.50
2023-04-27T23:47:17.398Z,8.75
2023-04-27T23:49:18.925Z,8.20
2023-04-27T23:51:20.830Z,8.80
2023-04-27T23:53:22.312Z,8.38
2023-04-27T23:55:23.777Z,9.05
2023-04-27T23:57:25.338Z,9.57
2023-04-27T23:59:26.896Z,8.93
